TPOK1: Kansas River, State-Line, KS

                                SHEF ID:       TPOK1     MARAIS DES CYGNES R NR KS-MO ST
STATION TYPE:

STAGE STAGE(2) RIV-FLOW BAT-LOAD
ft ft cfs volt
Ccp-Rev Ccp-Rev Ccp-Rev Ccp-Rev
(America/Chicago)
06/19 00:00 9.98 10.07 3440 12.40
06/19 01:00 9.97 10.07 3433 12.37
06/19 02:00 9.95 10.05 3419 12.37
06/19 03:00 9.97 10.07 3433 12.36
06/19 04:00 9.98 10.07 3440 12.35
06/19 05:00 9.94 10.04 3412 12.34
06/19 06:00 9.96 10.07 3426 12.32
06/19 07:00 9.95 10.10 3419 12.36
06/19 08:00 9.95 10.06 3419 12.36
06/19 09:00 9.99 10.11 3448 12.88
06/19 10:00 9.99 10.10 3448 13.29
06/19 11:00 9.98 10.07 3440 12.89
06/19 12:00 10.00 10.04 3455 13.36
06/19 13:00 9.97 10.06 3433 13.31
06/19 14:00 9.96 10.00 3426 13.24
06/19 15:00 9.95 10.06 3419 13.13
06/19 16:00 9.94 10.00 3412 13.09
06/19 17:00 9.94 10.04 3412 13.06
06/19 18:00 9.92 10.05 3397 12.93
06/19 19:00 9.93 10.00 3404 12.86
06/19 20:00 9.90 9.99 3383 12.63
06/19 21:00 9.88 10.00 3369 12.62
06/19 22:00 9.88 9.99 3369 12.59
06/19 23:00 9.90 9.97 3383 12.57
Data processed at Mon 22Jun2026 02:52 GMT

NOTICE: If you are parsing this page

Please convert to using our Data API. Starting early 2026 we will be migrating to: https://water.usace.army.mil with modern pages rendered in JavaScript. When this migration completes you will no longer be able to scrape this page! CWMSDataAPI (CDA)

Timeseries IDs (TSIDs)

TSIDs used from left to right in the data table
MKSL.Stage.Inst.1Hour.0.Ccp-Rev
MKSL.Stage-Alt.Inst.1Hour.0.Ccp-Rev
MKSL.Flow.Inst.1Hour.0.Ccp-Rev
MKSL.Volt-Battery Load.Inst.1Hour.0.Ccp-Rev

                            

All information presented herein is the property of the government of the United States of America and may be revised or deleted at any time without prior notice. Dissemination of this information without the expressed written consent of the Public Affairs Office, Tulsa District U.S. Army Corps of Engineers is strictly prohibited. These data are gathered electronically and, as presented, have NOT undergone any form of quality control. These data are NOT guaranteed to be valid or correct.